WIII/CGK METAR and TAF weather

Enter ICAO airport designator
Station Type Date Time Source
WIII METAR 2019/06/26 06:00 UTC NOAA

WIII 260600Z 06010KT 8000 SCT020 32/22 Q1010 NOSIG


Station Type Date Time Source
WIII Decoded METAR 2019/06/26 06:00 UTC NOAA

Jakarta / Soekarno-Hatta, Indonesia (WIII) 06-07S 106-39E 8M
Jun 26, 2019 - 02:00 AM EDT / 2019.06.26 0600 UTC
Wind: from the ENE (060 degrees) at 12 MPH (10 KT):0
Visibility: 4 mile(s):0
Sky conditions: partly cloudy
Temperature: 89 F (32 C)
Heat index: 95.0 F (35.0 C):1
Dew Point: 71 F (22 C)
Relative Humidity: 55%
Pressure (altimeter): 29.83 in. Hg (1010 hPa)
ob: WIII 260600Z 06010KT 8000 SCT020 32/22 Q1010 NOSIG
cycle: 6

Station Type Date Time Source
WIII TAF 2019/06/26 06:39 UTC NOAA

TAF WIII 260500Z 2606/2712 08010KT 8000 FEW020
BECMG 2612/2614 20003KT 4000 HZ

Example: see airport list